createdAt,value
2019-05-16T00:00:10.867Z,3.40
2019-05-16T00:02:39.623Z,3.20
2019-05-16T00:05:08.559Z,3.20
2019-05-16T00:07:39.018Z,2.87
2019-05-16T00:10:08.429Z,3.27
2019-05-16T00:12:39.583Z,3.40
2019-05-16T00:15:08.991Z,3.30
2019-05-16T00:17:38.794Z,3.33
2019-05-16T00:20:09.665Z,3.40
2019-05-16T00:22:39.458Z,3.00
2019-05-16T00:25:08.963Z,2.93
2019-05-16T00:27:38.656Z,3.10
2019-05-16T00:30:09.134Z,3.33
2019-05-16T00:32:39.107Z,3.40
2019-05-16T00:35:09.329Z,2.77
2019-05-16T00:37:39.300Z,3.93
2019-05-16T00:40:09.518Z,2.77
2019-05-16T00:42:39.024Z,3.10
2019-05-16T00:45:09.146Z,2.67
2019-05-16T00:47:38.921Z,2.93
2019-05-16T00:50:08.885Z,2.60
2019-05-16T00:52:39.491Z,2.67
2019-05-16T00:55:08.737Z,2.53
2019-05-16T00:57:38.868Z,2.40
2019-05-16T01:00:09.264Z,2.93
2019-05-16T01:02:38.273Z,2.60
2019-05-16T01:05:08.527Z,2.93
2019-05-16T01:07:39.201Z,2.93
2019-05-16T01:10:09.155Z,2.73
2019-05-16T01:12:38.986Z,2.70
2019-05-16T01:15:08.729Z,2.63
2019-05-16T01:17:39.058Z,2.63
2019-05-16T01:20:08.548Z,2.63
2019-05-16T01:22:38.581Z,2.73
2019-05-16T01:25:09.524Z,2.90
2019-05-16T01:27:38.710Z,2.53
2019-05-16T01:30:09.153Z,2.73
2019-05-16T01:32:39.186Z,2.57
2019-05-16T01:35:08.606Z,2.90
2019-05-16T01:37:38.366Z,2.93
2019-05-16T01:40:08.583Z,2.43
2019-05-16T01:42:38.589Z,2.33
2019-05-16T01:45:08.649Z,3.00
2019-05-16T01:47:39.370Z,2.77
2019-05-16T01:50:08.953Z,3.20
2019-05-16T01:52:38.342Z,3.10
2019-05-16T01:55:08.278Z,3.33
2019-05-16T01:57:39.128Z,3.03
2019-05-16T02:00:08.591Z,3.50
2019-05-16T02:02:38.514Z,3.30
2019-05-16T02:05:08.677Z,3.17
2019-05-16T02:07:38.713Z,3.13
2019-05-16T02:10:08.689Z,2.90
2019-05-16T02:12:38.429Z,3.23
2019-05-16T02:15:08.468Z,3.20
2019-05-16T02:17:38.528Z,3.20
2019-05-16T02:20:08.776Z,3.10
2019-05-16T02:22:38.950Z,3.13
2019-05-16T02:25:08.538Z,2.90
2019-05-16T02:27:38.173Z,3.10
2019-05-16T02:30:12.766Z,3.30
2019-05-16T02:32:41.936Z,3.83
2019-05-16T02:35:11.715Z,3.50
2019-05-16T02:37:42.493Z,3.23
2019-05-16T02:40:12.552Z,3.20
2019-05-16T02:42:42.509Z,3.40
2019-05-16T02:45:11.418Z,3.37
2019-05-16T02:47:42.439Z,3.40
2019-05-16T02:50:12.172Z,3.10
2019-05-16T02:52:42.100Z,2.97
2019-05-16T02:55:11.920Z,3.10
2019-05-16T02:57:41.857Z,3.33
2019-05-16T03:00:12.393Z,3.00
2019-05-16T03:02:42.087Z,3.50
2019-05-16T03:05:12.290Z,2.93
2019-05-16T03:07:47.330Z,3.07
2019-05-16T03:10:14.067Z,3.23
2019-05-16T03:12:43.912Z,2.80
2019-05-16T03:15:12.968Z,3.00
2019-05-16T03:17:43.872Z,2.97
2019-05-16T03:20:13.462Z,2.90
2019-05-16T03:22:43.172Z,2.93
2019-05-16T03:25:11.980Z,3.23
2019-05-16T03:27:41.566Z,3.03
2019-05-16T03:30:15.890Z,2.97
2019-05-16T03:32:44.662Z,3.30
2019-05-16T03:35:15.261Z,3.30
2019-05-16T03:37:55.217Z,3.23
2019-05-16T03:40:15.857Z,3.87
2019-05-16T03:42:44.465Z,2.90
2019-05-16T03:45:13.551Z,2.77
2019-05-16T03:47:42.943Z,3.13
2019-05-16T03:50:11.989Z,3.30
2019-05-16T03:52:43.583Z,3.00
2019-05-16T03:55:11.476Z,2.97
2019-05-16T03:57:41.713Z,2.97
2019-05-16T04:00:11.778Z,2.90
2019-05-16T04:02:41.914Z,3.90
2019-05-16T04:05:12.001Z,2.90
2019-05-16T04:07:41.909Z,3.00
2019-05-16T04:10:11.220Z,2.60
2019-05-16T04:12:42.014Z,2.80
2019-05-16T04:15:11.269Z,2.77
2019-05-16T04:17:41.353Z,12.20
2019-05-16T04:20:11.753Z,25.30
2019-05-16T04:22:40.861Z,2.33
2019-05-16T04:25:11.420Z,2.87
2019-05-16T04:27:41.582Z,2.57
2019-05-16T04:30:12.089Z,2.80
2019-05-16T04:32:41.927Z,2.70
2019-05-16T04:35:11.596Z,2.70
2019-05-16T04:37:42.349Z,3.00
2019-05-16T04:40:12.062Z,2.20
2019-05-16T04:42:42.009Z,2.40
2019-05-16T04:45:12.051Z,2.00
2019-05-16T04:47:41.501Z,2.20
2019-05-16T04:50:11.915Z,1.90
2019-05-16T04:52:41.849Z,1.50
2019-05-16T04:55:12.068Z,1.83
2019-05-16T04:57:42.196Z,1.80
2019-05-16T05:00:12.019Z,1.70
2019-05-16T05:02:41.897Z,1.93
2019-05-16T05:05:12.937Z,1.93
2019-05-16T05:07:41.878Z,1.80
2019-05-16T05:10:11.560Z,1.60
2019-05-16T05:12:41.050Z,1.87
2019-05-16T05:15:11.466Z,2.50
2019-05-16T05:17:41.313Z,1.80
2019-05-16T05:20:10.912Z,1.70
2019-05-16T05:22:40.016Z,1.70
2019-05-16T05:25:10.835Z,1.73
2019-05-16T05:27:41.224Z,2.50
2019-05-16T05:30:12.005Z,1.87
2019-05-16T05:32:41.255Z,1.90
2019-05-16T05:35:10.774Z,1.70
2019-05-16T05:37:41.058Z,1.90
2019-05-16T05:40:10.710Z,2.07
2019-05-16T05:42:40.413Z,1.80
2019-05-16T05:45:11.183Z,1.60
2019-05-16T05:47:40.411Z,1.53
2019-05-16T05:50:12.367Z,1.50
2019-05-16T05:52:41.352Z,1.67
2019-05-16T05:55:10.874Z,1.60
2019-05-16T05:57:40.405Z,1.60
2019-05-16T06:00:11.513Z,1.50
2019-05-16T06:02:40.462Z,1.60
2019-05-16T06:05:10.666Z,1.33
2019-05-16T06:07:40.453Z,1.40
2019-05-16T06:10:10.682Z,1.53
2019-05-16T06:12:40.850Z,1.50
2019-05-16T06:15:12.780Z,1.53
2019-05-16T06:17:40.888Z,1.57
2019-05-16T06:20:14.549Z,1.60
2019-05-16T06:22:40.407Z,1.70
2019-05-16T06:25:13.087Z,1.80
2019-05-16T06:27:40.683Z,1.60
2019-05-16T06:30:11.376Z,1.63
2019-05-16T06:32:40.184Z,1.60
2019-05-16T06:35:09.723Z,1.30
2019-05-16T06:37:40.709Z,1.50
2019-05-16T06:40:10.949Z,1.43
2019-05-16T06:42:40.295Z,1.50
2019-05-16T06:45:10.444Z,1.30
2019-05-16T06:47:39.739Z,1.40
2019-05-16T06:50:11.400Z,1.50
2019-05-16T06:52:40.904Z,1.50
2019-05-16T06:55:10.369Z,1.70
2019-05-16T06:57:40.893Z,1.60
2019-05-16T07:00:11.024Z,1.57
2019-05-16T07:02:40.916Z,1.40
2019-05-16T07:05:10.393Z,1.77
2019-05-16T07:07:40.418Z,1.50
2019-05-16T07:10:10.303Z,1.50
2019-05-16T07:12:41.138Z,1.40
2019-05-16T07:15:12.228Z,1.60
2019-05-16T07:17:40.843Z,1.77
2019-05-16T07:20:10.442Z,1.50
2019-05-16T07:22:40.653Z,2.07
2019-05-16T07:25:11.045Z,1.73
2019-05-16T07:27:40.149Z,1.53
2019-05-16T07:30:10.721Z,1.60
2019-05-16T07:32:40.491Z,1.80
2019-05-16T07:35:09.851Z,1.70
2019-05-16T07:37:39.924Z,1.80
2019-05-16T07:40:19.265Z,1.57
2019-05-16T07:42:40.358Z,1.73
2019-05-16T07:45:10.631Z,1.97
2019-05-16T07:47:40.336Z,1.77
2019-05-16T07:50:10.501Z,1.90
2019-05-16T07:52:40.248Z,1.80
2019-05-16T07:55:10.727Z,1.90
2019-05-16T07:57:40.046Z,1.73
2019-05-16T08:00:10.071Z,1.90
2019-05-16T08:02:40.283Z,2.00
2019-05-16T08:05:10.289Z,1.77
2019-05-16T08:07:40.677Z,1.90
2019-05-16T08:10:10.926Z,2.10
2019-05-16T08:12:40.664Z,1.93
2019-05-16T08:15:10.559Z,1.97
2019-05-16T08:17:41.358Z,1.97
2019-05-16T08:20:10.865Z,2.03
2019-05-16T08:22:41.640Z,1.77
2019-05-16T08:25:10.839Z,2.27
2019-05-16T08:32:42.159Z,2.07
2019-05-16T08:35:11.679Z,1.80
2019-05-16T08:37:46.034Z,1.73
2019-05-16T08:40:11.598Z,1.77
2019-05-16T08:42:41.597Z,2.00
2019-05-16T08:45:12.472Z,2.03
2019-05-16T08:47:42.557Z,1.80
2019-05-16T08:50:10.872Z,1.93
2019-05-16T08:50:14.379Z,2.10
2019-05-16T08:52:43.407Z,2.10
2019-05-16T08:55:14.027Z,2.27
2019-05-16T08:57:42.564Z,2.30
2019-05-16T09:00:14.453Z,1.93
2019-05-16T09:02:42.979Z,2.13
2019-05-16T09:07:42.153Z,2.53
2019-05-16T09:10:41.994Z,1.83
2019-05-16T09:10:45.926Z,2.10
2019-05-16T09:12:41.331Z,2.10
2019-05-16T09:15:10.320Z,2.43
2019-05-16T09:17:38.853Z,2.20
2019-05-16T09:18:38.454Z,2.10
2019-05-16T09:20:07.844Z,2.20
2019-05-16T09:22:37.736Z,2.10
2019-05-16T09:25:08.632Z,2.20
2019-05-16T09:27:38.136Z,2.20
2019-05-16T09:30:08.640Z,2.07
2019-05-16T09:32:37.278Z,2.30
2019-05-16T09:35:08.081Z,2.47
2019-05-16T09:37:37.642Z,2.00
2019-05-16T09:40:08.746Z,2.30
2019-05-16T09:42:37.536Z,2.30
2019-05-16T09:45:07.791Z,2.10
2019-05-16T09:47:38.964Z,2.20
2019-05-16T09:50:11.448Z,2.20
2019-05-16T09:52:40.078Z,2.40
2019-05-16T09:55:11.620Z,2.00
2019-05-16T09:57:40.603Z,2.10
2019-05-16T10:00:26.695Z,2.27
2019-05-16T10:02:54.171Z,2.00
2019-05-16T10:05:22.839Z,2.30
2019-05-16T10:07:51.324Z,2.00
2019-05-16T10:10:21.192Z,1.80
2019-05-16T10:12:49.818Z,2.00
2019-05-16T10:15:18.956Z,2.00
2019-05-16T10:17:47.841Z,2.03
2019-05-16T10:20:17.166Z,1.80
2019-05-16T10:22:46.814Z,1.83
2019-05-16T10:25:19.049Z,1.90
2019-05-16T10:27:47.516Z,2.10
2019-05-16T10:30:17.825Z,2.10
2019-05-16T10:32:47.772Z,2.10
2019-05-16T10:35:18.121Z,1.90
2019-05-16T10:37:47.163Z,1.90
2019-05-16T10:40:18.273Z,2.20
2019-05-16T10:42:47.334Z,2.07
2019-05-16T10:45:16.792Z,2.30
2019-05-16T10:47:47.819Z,2.00
2019-05-16T10:50:16.641Z,1.93
2019-05-16T10:52:47.514Z,2.03
2019-05-16T10:55:17.640Z,1.90
2019-05-16T10:57:47.394Z,2.10
2019-05-16T11:00:37.112Z,2.67
2019-05-16T11:02:47.623Z,2.73
2019-05-16T11:05:28.736Z,3.30
2019-05-16T11:07:48.613Z,2.87
2019-05-16T11:10:17.404Z,3.10
2019-05-16T11:12:51.897Z,2.87
2019-05-16T11:15:17.385Z,3.20
2019-05-16T11:17:46.149Z,2.70
2019-05-16T11:20:19.619Z,2.77
2019-05-16T11:22:47.715Z,3.00
2019-05-16T11:25:28.119Z,2.80
2019-05-16T11:27:47.215Z,3.07
2019-05-16T11:30:18.346Z,3.63
2019-05-16T11:32:48.287Z,2.47
2019-05-16T11:35:17.378Z,3.00
2019-05-16T11:37:47.235Z,3.07
2019-05-16T11:40:17.786Z,3.20
2019-05-16T11:42:51.980Z,2.90
2019-05-16T11:45:17.199Z,2.97
2019-05-16T11:47:47.137Z,2.97
2019-05-16T11:50:17.770Z,3.00
2019-05-16T11:52:47.642Z,2.60
2019-05-16T11:55:16.870Z,2.63
2019-05-16T11:57:47.585Z,2.63
2019-05-16T12:00:17.936Z,3.20
2019-05-16T12:02:47.756Z,3.00
2019-05-16T12:05:17.563Z,3.30
2019-05-16T12:07:48.547Z,3.70
2019-05-16T12:10:16.955Z,3.13
2019-05-16T12:12:45.505Z,3.60
2019-05-16T12:15:17.533Z,3.50
2019-05-16T12:17:59.167Z,3.40
2019-05-16T12:20:16.714Z,3.50
2019-05-16T12:22:45.031Z,3.27
2019-05-16T12:25:13.632Z,3.10
2019-05-16T12:27:42.722Z,3.30
2019-05-16T12:30:13.686Z,3.40
2019-05-16T12:32:42.359Z,3.70
2019-05-16T12:35:11.219Z,3.00
2019-05-16T12:37:39.779Z,3.27
2019-05-16T12:40:08.844Z,3.17
2019-05-16T12:42:37.868Z,3.40
2019-05-16T12:45:08.040Z,3.60
2019-05-16T12:47:37.539Z,3.43
2019-05-16T12:50:10.678Z,3.37
2019-05-16T12:52:39.737Z,4.33
2019-05-16T12:55:08.810Z,3.53
2019-05-16T12:57:38.456Z,3.60
2019-05-16T13:00:15.414Z,4.57
2019-05-16T13:02:39.643Z,3.83
2019-05-16T13:05:09.512Z,3.87
2019-05-16T13:07:38.063Z,4.17
2019-05-16T13:10:08.437Z,3.70
2019-05-16T13:12:37.707Z,3.40
2019-05-16T13:15:07.354Z,3.70
2019-05-16T13:17:37.296Z,3.90
2019-05-16T13:20:08.058Z,3.30
2019-05-16T13:22:38.414Z,3.43
2019-05-16T13:25:07.977Z,3.60
2019-05-16T13:27:37.350Z,3.60
2019-05-16T13:30:13.876Z,3.40
2019-05-16T13:32:42.496Z,3.50
2019-05-16T13:35:11.395Z,4.10
2019-05-16T13:37:39.876Z,3.50
2019-05-16T13:40:09.144Z,3.73
2019-05-16T13:42:37.701Z,3.80
2019-05-16T13:45:07.971Z,3.40
2019-05-16T13:47:37.547Z,3.00
2019-05-16T13:50:12.098Z,3.40
2019-05-16T13:52:38.780Z,3.30
2019-05-16T13:55:08.558Z,3.33
2019-05-16T13:57:37.569Z,3.30
2019-05-16T14:00:08.661Z,3.33
2019-05-16T14:02:38.171Z,3.37
2019-05-16T14:05:08.140Z,3.80
2019-05-16T14:07:37.667Z,4.03
2019-05-16T14:10:08.112Z,3.63
2019-05-16T14:12:36.946Z,3.77
2019-05-16T14:15:09.232Z,3.30
2019-05-16T14:17:37.868Z,3.60
2019-05-16T14:20:14.721Z,3.40
2019-05-16T14:22:38.289Z,3.50
2019-05-16T14:25:08.552Z,3.20
2019-05-16T14:27:38.143Z,3.73
2019-05-16T14:30:10.606Z,3.47
2019-05-16T14:32:42.721Z,3.00
2019-05-16T14:35:09.700Z,3.53
2019-05-16T14:37:38.411Z,3.40
2019-05-16T14:40:08.126Z,3.50
2019-05-16T14:42:38.840Z,3.17
2019-05-16T14:45:12.857Z,2.60
2019-05-16T14:47:40.301Z,3.40
2019-05-16T14:50:13.005Z,3.10
2019-05-16T14:52:39.145Z,3.47
2019-05-16T14:55:07.816Z,3.10
2019-05-16T14:57:36.895Z,3.60
2019-05-16T15:00:07.479Z,3.90
2019-05-16T15:02:38.117Z,3.90
2019-05-16T15:05:08.279Z,3.60
2019-05-16T15:07:37.515Z,3.40
2019-05-16T15:10:08.380Z,3.80
2019-05-16T15:12:37.755Z,3.63
2019-05-16T15:15:20.192Z,3.97
2019-05-16T15:17:38.738Z,3.80
2019-05-16T15:20:08.524Z,3.27
2019-05-16T15:22:38.432Z,3.50
2019-05-16T15:25:08.506Z,3.73
2019-05-16T15:27:37.463Z,3.80
2019-05-16T15:30:10.128Z,4.07
2019-05-16T15:32:38.861Z,3.87
2019-05-16T15:35:08.090Z,3.90
2019-05-16T15:37:37.458Z,3.53
2019-05-16T15:40:08.183Z,4.03
2019-05-16T15:42:37.470Z,3.90
2019-05-16T15:45:07.993Z,4.40
2019-05-16T15:47:37.527Z,4.27
2019-05-16T15:50:08.564Z,4.27
2019-05-16T15:52:38.553Z,3.73
2019-05-16T15:55:11.047Z,4.20
2019-05-16T15:57:39.592Z,3.87
2019-05-16T16:00:10.622Z,4.30
2019-05-16T16:02:39.973Z,4.40
2019-05-16T16:05:09.368Z,4.37
2019-05-16T16:07:38.263Z,4.87
2019-05-16T16:10:08.077Z,4.30
2019-05-16T16:12:37.763Z,4.60
2019-05-16T16:15:07.826Z,4.80
2019-05-16T16:17:38.127Z,4.10
2019-05-16T16:20:10.406Z,4.07
2019-05-16T16:22:38.482Z,4.50
2019-05-16T16:25:07.559Z,4.57
2019-05-16T16:27:36.053Z,4.37
2019-05-16T16:30:07.118Z,4.37
2019-05-16T16:32:38.047Z,4.37
2019-05-16T16:35:08.116Z,4.40
2019-05-16T16:37:37.831Z,4.70
2019-05-16T16:40:11.421Z,4.97
2019-05-16T16:42:37.911Z,5.17
2019-05-16T16:45:07.389Z,5.43
2019-05-16T16:47:37.890Z,5.17
2019-05-16T16:50:08.006Z,4.57
2019-05-16T16:52:37.974Z,5.27
2019-05-16T16:55:10.244Z,6.00
2019-05-16T16:57:38.848Z,5.63
2019-05-16T17:00:09.821Z,5.73
2019-05-16T17:02:38.285Z,6.00
2019-05-16T17:05:11.730Z,6.10
2019-05-16T17:07:37.721Z,5.97
2019-05-16T17:10:07.967Z,6.07
2019-05-16T17:12:41.979Z,5.20
2019-05-16T17:15:08.902Z,5.50
2019-05-16T17:17:37.775Z,4.57
2019-05-16T17:20:08.228Z,4.53
2019-05-16T17:22:37.908Z,4.70
2019-05-16T17:25:09.556Z,4.50
2019-05-16T17:27:38.102Z,5.37
2019-05-16T17:30:12.519Z,5.47
2019-05-16T17:32:41.047Z,4.90
2019-05-16T17:35:09.740Z,4.63
2019-05-16T17:37:38.271Z,4.67
2019-05-16T17:40:07.712Z,5.03
2019-05-16T17:42:37.374Z,4.60
2019-05-16T17:45:07.333Z,4.23
2019-05-16T17:47:37.028Z,4.43
2019-05-16T17:50:08.563Z,5.10
2019-05-16T17:52:37.359Z,4.50
2019-05-16T17:55:07.757Z,4.60
2019-05-16T17:57:37.107Z,5.60
2019-05-16T18:00:13.023Z,5.67
2019-05-16T18:02:38.963Z,6.13
2019-05-16T18:05:09.083Z,4.90
2019-05-16T18:07:37.549Z,18.03
2019-05-16T18:10:07.585Z,6.00
2019-05-16T18:12:37.189Z,4.93
2019-05-16T18:15:08.477Z,5.27
2019-05-16T18:17:37.379Z,5.10
2019-05-16T18:20:07.952Z,5.00
2019-05-16T18:22:36.689Z,5.30
2019-05-16T18:25:07.097Z,5.70
2019-05-16T18:27:37.644Z,5.70
2019-05-16T18:30:08.259Z,4.80
2019-05-16T18:32:37.432Z,5.00
2019-05-16T18:35:08.014Z,5.80
2019-05-16T18:37:36.696Z,5.00
2019-05-16T18:40:09.855Z,5.37
2019-05-16T18:42:38.383Z,5.70
2019-05-16T18:45:07.760Z,5.80
2019-05-16T18:47:37.835Z,5.40
2019-05-16T18:50:08.187Z,5.17
2019-05-16T18:52:37.523Z,5.33
2019-05-16T18:55:08.469Z,6.10
2019-05-16T18:57:37.871Z,5.60
2019-05-16T19:00:10.946Z,5.50
2019-05-16T19:02:39.055Z,5.50
2019-05-16T19:05:08.528Z,6.03
2019-05-16T19:07:37.581Z,5.40
2019-05-16T19:10:09.536Z,6.07
2019-05-16T19:12:38.021Z,5.43
2019-05-16T19:15:08.264Z,5.13
2019-05-16T19:17:37.168Z,5.07
2019-05-16T19:20:06.914Z,4.67
2019-05-16T19:22:37.205Z,5.10
2019-05-16T19:25:07.816Z,5.23
2019-05-16T19:27:37.051Z,5.30
2019-05-16T19:30:08.037Z,4.90
2019-05-16T19:32:39.065Z,5.00
2019-05-16T19:35:11.208Z,5.40
2019-05-16T19:37:40.712Z,4.90
2019-05-16T19:40:10.175Z,5.10
2019-05-16T19:42:38.667Z,5.03
2019-05-16T19:45:08.319Z,5.33
2019-05-16T19:47:40.904Z,5.73
2019-05-16T19:50:07.720Z,5.30
2019-05-16T19:52:36.827Z,5.60
2019-05-16T19:55:07.507Z,4.97
2019-05-16T19:57:37.421Z,5.40
2019-05-16T20:00:08.354Z,5.57
2019-05-16T20:02:37.720Z,6.90
2019-05-16T20:05:08.072Z,6.33
2019-05-16T20:07:37.237Z,6.87
2019-05-16T20:10:09.504Z,7.30
2019-05-16T20:12:38.004Z,8.07
2019-05-16T20:15:11.732Z,7.73
2019-05-16T20:17:50.915Z,7.90
2019-05-16T20:20:09.761Z,7.80
2019-05-16T20:22:38.461Z,7.27
2019-05-16T20:25:08.356Z,7.50
2019-05-16T20:27:37.008Z,7.90
2019-05-16T20:30:07.912Z,8.07
2019-05-16T20:32:37.150Z,8.50
2019-05-16T20:35:08.839Z,8.60
2019-05-16T20:37:37.275Z,8.00
2019-05-16T20:40:08.829Z,7.80
2019-05-16T20:42:36.901Z,8.30
2019-05-16T20:45:09.369Z,8.90
2019-05-16T20:47:37.896Z,8.73
2019-05-16T20:50:08.954Z,8.00
2019-05-16T20:52:38.037Z,8.67
2019-05-16T20:55:08.238Z,8.83
2019-05-16T20:57:37.742Z,8.80
2019-05-16T21:00:09.849Z,8.70
2019-05-16T21:02:38.512Z,9.37
2019-05-16T21:05:07.274Z,9.40
2019-05-16T21:07:37.457Z,9.00
2019-05-16T21:10:07.918Z,8.60
2019-05-16T21:12:40.163Z,8.80
2019-05-16T21:15:08.139Z,8.40
2019-05-16T21:17:36.694Z,8.90
2019-05-16T21:20:07.422Z,8.83
2019-05-16T21:22:37.124Z,8.83
2019-05-16T21:25:06.368Z,9.80
2019-05-16T21:27:37.480Z,9.30
2019-05-16T21:30:08.608Z,8.70
2019-05-16T21:32:37.244Z,9.93
2019-05-16T21:35:09.203Z,9.90
2019-05-16T21:37:37.763Z,9.90
2019-05-16T21:40:08.336Z,8.70
2019-05-16T21:42:36.963Z,9.63
2019-05-16T21:45:08.236Z,9.30
2019-05-16T21:47:37.196Z,9.33
2019-05-16T21:50:08.891Z,9.23
2019-05-16T21:52:37.439Z,9.50
2019-05-16T21:55:08.667Z,9.17
2019-05-16T21:57:37.756Z,10.30
2019-05-16T22:00:11.290Z,10.50
2019-05-16T22:02:40.017Z,9.63
2019-05-16T22:05:09.261Z,9.70
2019-05-16T22:07:37.792Z,9.13
2019-05-16T22:10:07.727Z,10.03
2019-05-16T22:12:38.385Z,10.00
2019-05-16T22:15:08.176Z,9.90
2019-05-16T22:17:36.805Z,9.40
2019-05-16T22:20:08.851Z,10.17
2019-05-16T22:22:38.156Z,10.47
2019-05-16T22:25:07.939Z,9.80
2019-05-16T22:27:36.523Z,10.23
2019-05-16T22:30:11.112Z,10.33
2019-05-16T22:32:39.787Z,10.90
2019-05-16T22:35:08.725Z,10.10
2019-05-16T22:37:49.283Z,10.53
2019-05-16T22:40:07.907Z,10.63
2019-05-16T22:42:37.527Z,10.63
2019-05-16T22:45:08.984Z,10.77
2019-05-16T22:47:37.920Z,11.47
2019-05-16T22:50:08.473Z,10.80
2019-05-16T22:52:37.163Z,11.33
2019-05-16T22:55:07.440Z,10.33
2019-05-16T22:57:36.199Z,9.97
2019-05-16T23:00:10.672Z,11.00
2019-05-16T23:02:39.227Z,11.40
2019-05-16T23:05:08.208Z,10.40
2019-05-16T23:07:36.949Z,10.47
2019-05-16T23:10:07.237Z,11.03
2019-05-16T23:12:37.190Z,10.60
2019-05-16T23:15:06.818Z,10.97
2019-05-16T23:17:37.570Z,11.20
2019-05-16T23:20:07.792Z,10.90
2019-05-16T23:22:36.769Z,10.93
2019-05-16T23:25:06.669Z,11.20
2019-05-16T23:27:36.808Z,10.90
2019-05-16T23:30:11.773Z,11.20
2019-05-16T23:32:40.585Z,11.03
2019-05-16T23:35:09.676Z,11.20
2019-05-16T23:37:38.208Z,10.60
2019-05-16T23:40:06.931Z,11.20
2019-05-16T23:42:37.139Z,11.40
2019-05-16T23:45:08.730Z,11.53
2019-05-16T23:47:38.007Z,11.17
2019-05-16T23:50:07.724Z,11.40
2019-05-16T23:52:36.966Z,12.73
2019-05-16T23:55:08.187Z,12.80
2019-05-16T23:57:37.614Z,11.50
